Time;durP1;ratioP1;P1;durP2;ratioP2;P2;SDS_P1;SDS_P2;PMS_P1;PMS_P2;Temp;Humidity;BMP_temperature;BMP_pressure;BME280_temperature;BME280_humidity;BME280_pressure;Samples;Min_cycle;Max_cycle;Signal;HPM_P1;HPM_P2
2022/06/17 00:01:26;;;;;;;0.22;0.22;;;17.60;99.90;;;;;;4895436;29;20107;-67
2022/06/17 00:03:52;;;;;;;0.13;0.13;;;17.50;99.90;;;;;;4893779;29;20460;-67
2022/06/17 00:06:20;;;;;;;0.30;0.30;;;17.50;99.90;;;;;;4895729;29;20088;-67
2022/06/17 00:08:49;;;;;;;0.35;0.30;;;17.50;99.90;;;;;;4894044;29;20559;-67
2022/06/17 00:11:24;;;;;;;0.20;0.20;;;17.50;99.90;;;;;;4893164;29;20056;-67
2022/06/17 00:13:50;;;;;;;0.47;0.38;;;17.40;99.90;;;;;;4896016;29;20056;-67
2022/06/17 00:16:18;;;;;;;0.70;0.70;;;17.40;99.90;;;;;;4894760;29;20492;-67
2022/06/17 00:18:43;;;;;;;0.30;0.30;;;17.50;99.90;;;;;;4894539;29;20048;-67
2022/06/17 00:21:21;;;;;;;1.40;0.43;;;17.50;99.90;;;;;;4907373;29;20059;-67
2022/06/17 00:23:47;;;;;;;0.20;0.20;;;17.40;99.90;;;;;;4912411;29;20058;-67
2022/06/17 00:26:12;;;;;;;0.93;0.90;;;17.50;99.90;;;;;;4904325;29;20040;-67
2022/06/17 00:28:38;;;;;;;0.65;0.50;;;17.40;99.90;;;;;;4894303;29;20099;-67
2022/06/17 00:31:04;;;;;;;1.80;0.50;;;17.40;99.90;;;;;;4896413;29;20059;-67
2022/06/17 00:33:29;;;;;;;0.45;0.45;;;17.50;99.90;;;;;;4912382;29;20068;-67
2022/06/17 00:35:56;;;;;;;0.28;0.28;;;17.40;99.90;;;;;;4913687;29;20067;-67
2022/06/17 00:38:24;;;;;;;0.08;0.08;;;17.50;99.90;;;;;;4902995;29;20100;-67
2022/06/17 00:40:51;;;;;;;0.20;0.20;;;17.50;99.90;;;;;;4900598;29;20505;-67
2022/06/17 00:43:26;;;;;;;0.20;0.20;;;17.50;99.90;;;;;;4909629;29;20515;-67
2022/06/17 00:46:14;;;;;;;3.30;1.13;;;17.40;99.90;;;;;;4908832;29;20060;-67
2022/06/17 00:48:49;;;;;;;0.17;0.17;;;17.40;99.90;;;;;;4913266;29;20063;-67
2022/06/17 00:51:23;;;;;;;0.52;0.25;;;17.30;99.90;;;;;;4913411;29;20495;-67
2022/06/17 00:53:59;;;;;;;0.10;0.10;;;17.40;99.90;;;;;;4909540;29;20210;-67
2022/06/17 00:56:28;;;;;;;0.65;0.52;;;17.40;99.90;;;;;;4913776;29;20048;-67
2022/06/17 00:58:54;;;;;;;1.02;0.70;;;17.30;99.90;;;;;;4900448;29;20147;-67
2022/06/17 01:01:22;;;;;;;0.40;0.40;;;17.40;99.90;;;;;;4900061;29;20127;-67
2022/06/17 01:03:51;;;;;;;0.20;0.20;;;17.30;99.90;;;;;;4897639;29;20045;-67
2022/06/17 01:06:21;;;;;;;0.57;0.57;;;17.40;99.90;;;;;;4898310;29;20055;-67
2022/06/17 01:11:43;;;;;;;1.42;0.98;;;17.20;99.90;;;;;;4896741;29;20135;-67
2022/06/17 01:14:12;;;;;;;0.38;0.38;;;17.20;99.90;;;;;;4901736;29;20553;-67
2022/06/17 01:16:41;;;;;;;0.28;0.28;;;17.20;99.90;;;;;;4897606;29;20048;-67
2022/06/17 01:19:27;;;;;;;1.17;0.95;;;17.10;99.90;;;;;;4896560;29;20116;-67
2022/06/17 01:22:40;;;;;;;0.55;0.55;;;17.10;99.90;;;;;;4895743;29;20048;-67
2022/06/17 01:25:15;;;;;;;0.30;0.30;;;17.10;99.90;;;;;;4877584;29;20501;-67
2022/06/17 01:27:44;;;;;;;0.50;0.50;;;17.10;99.90;;;;;;4893161;29;20056;-67
2022/06/17 01:30:15;;;;;;;3.15;1.23;;;17.00;99.90;;;;;;4896246;29;20080;-67
2022/06/17 01:32:53;;;;;;;0.60;0.60;;;17.10;99.90;;;;;;4910811;29;20212;-67
2022/06/17 01:35:20;;;;;;;0.70;0.50;;;17.10;99.90;;;;;;4915162;29;20067;-67
2022/06/17 01:37:46;;;;;;;0.30;0.30;;;17.10;99.90;;;;;;4911349;29;20373;-67
2022/06/17 01:40:13;;;;;;;0.50;0.50;;;17.00;99.90;;;;;;4899875;29;20060;-67
2022/06/17 01:42:39;;;;;;;0.50;0.32;;;17.00;99.90;;;;;;4896328;29;20138;-67
2022/06/17 01:45:08;;;;;;;4.10;0.90;;;17.00;99.90;;;;;;4903266;29;20044;-67
2022/06/17 01:47:36;;;;;;;6.72;1.08;;;17.00;99.90;;;;;;4915475;29;20382;-67
2022/06/17 01:50:08;;;;;;;0.80;0.73;;;17.00;99.90;;;;;;4910907;29;20067;-67
2022/06/17 01:52:43;;;;;;;0.40;0.40;;;17.00;99.90;;;;;;4897037;29;20072;-67
2022/06/17 01:55:20;;;;;;;0.75;0.75;;;16.90;99.90;;;;;;4895506;29;20055;-67
2022/06/17 01:58:01;;;;;;;0.35;0.35;;;16.90;99.90;;;;;;4896481;29;20495;-67
2022/06/17 02:00:29;;;;;;;2.85;1.23;;;16.80;99.90;;;;;;4894127;29;20056;-67
2022/06/17 02:03:13;;;;;;;0.20;0.20;;;16.90;99.90;;;;;;4896099;29;20392;-67
2022/06/17 02:05:42;;;;;;;0.30;0.30;;;16.80;99.90;;;;;;4896758;29;20970;-67
2022/06/17 02:08:08;;;;;;;0.32;0.32;;;16.70;99.90;;;;;;4896562;29;20048;-67
2022/06/17 02:10:42;;;;;;;0.90;0.73;;;16.70;99.90;;;;;;4894603;29;20189;-67
2022/06/17 02:13:11;;;;;;;6.50;2.05;;;16.70;99.90;;;;;;4906075;29;20187;-67
2022/06/17 02:15:37;;;;;;;2.72;1.85;;;16.70;99.90;;;;;;4910601;29;20505;-67
2022/06/17 02:18:07;;;;;;;4.32;0.35;;;16.70;99.90;;;;;;4914190;29;20125;-67
2022/06/17 02:20:33;;;;;;;3.80;0.50;;;16.70;99.90;;;;;;4896813;29;20067;-67
2022/06/17 02:23:00;;;;;;;0.30;0.30;;;16.60;99.90;;;;;;4895074;29;20060;-67
2022/06/17 02:25:29;;;;;;;0.80;0.73;;;16.60;99.90;;;;;;4895462;29;20532;-67
2022/06/17 02:27:59;;;;;;;0.20;0.20;;;16.60;99.90;;;;;;4896391;29;20044;-67
2022/06/17 02:30:28;;;;;;;0.77;0.77;;;16.50;99.90;;;;;;4909760;29;20044;-67
2022/06/17 02:32:58;;;;;;;0.10;0.10;;;16.50;99.90;;;;;;4895437;29;20064;-67
2022/06/17 02:35:42;;;;;;;0.45;0.45;;;16.60;99.90;;;;;;4910953;29;20078;-67
2022/06/17 02:38:13;;;;;;;0.13;0.13;;;16.60;99.90;;;;;;4907924;29;20056;-67
2022/06/17 02:40:41;;;;;;;0.50;0.50;;;16.60;99.90;;;;;;4902694;29;20523;-67
2022/06/17 02:43:14;;;;;;;0.45;0.45;;;16.50;99.90;;;;;;4909009;29;20044;-67
2022/06/17 02:45:44;;;;;;;0.20;0.20;;;16.70;99.90;;;;;;4912782;29;20080;-67
2022/06/17 02:48:40;;;;;;;4.05;1.75;;;16.70;99.90;;;;;;4908775;29;20559;-67
2022/06/17 02:51:06;;;;;;;0.32;0.32;;;16.70;99.90;;;;;;4914250;29;20063;-67
2022/06/17 02:53:35;;;;;;;0.17;0.17;;;16.70;99.90;;;;;;4914181;29;20048;-67
2022/06/17 02:56:05;;;;;;;8.23;0.82;;;16.70;99.90;;;;;;4901727;29;20051;-67
2022/06/17 02:59:05;;;;;;;0.15;0.15;;;16.70;99.90;;;;;;4896107;29;20046;-67
2022/06/17 03:01:34;;;;;;;0.35;0.35;;;16.70;99.90;;;;;;4897267;29;20075;-67
2022/06/17 03:04:01;;;;;;;1.67;0.85;;;16.60;99.90;;;;;;4895533;29;20052;-67
2022/06/17 03:06:37;;;;;;;6.03;0.90;;;16.60;99.90;;;;;;4894996;29;20386;-67
2022/06/17 03:09:33;;;;;;;0.40;0.40;;;16.60;99.90;;;;;;4895501;29;20496;-67
2022/06/17 03:12:02;;;;;;;0.25;0.25;;;16.50;99.90;;;;;;4890247;29;20064;-67
2022/06/17 03:14:49;;;;;;;0.22;0.22;;;16.60;99.90;;;;;;4900925;29;20388;-67
2022/06/17 03:17:18;;;;;;;0.40;0.40;;;16.60;99.90;;;;;;4887423;29;20509;-67
2022/06/17 03:19:45;;;;;;;0.32;0.32;;;16.60;99.90;;;;;;4894118;29;20497;-67
2022/06/17 03:22:13;;;;;;;1.75;0.45;;;16.60;99.90;;;;;;4894333;29;20497;-67
2022/06/17 03:24:42;;;;;;;0.25;0.20;;;16.60;99.90;;;;;;4893411;29;20075;-67
2022/06/17 03:27:32;;;;;;;0.10;0.10;;;16.60;99.90;;;;;;4895934;29;20059;-67
2022/06/17 03:30:00;;;;;;;0.77;0.57;;;16.60;99.90;;;;;;4894810;29;20111;-67
2022/06/17 03:32:30;;;;;;;0.30;0.30;;;16.60;99.90;;;;;;4901584;29;20467;-67
2022/06/17 03:34:56;;;;;;;0.45;0.45;;;16.60;99.90;;;;;;4913516;29;20059;-67
2022/06/17 03:37:43;;;;;;;0.10;0.10;;;16.60;99.90;;;;;;4908949;29;20079;-67
2022/06/17 03:40:18;;;;;;;1.00;0.40;;;16.60;99.90;;;;;;4912384;29;20063;-67
2022/06/17 03:43:15;;;;;;;0.13;0.13;;;16.70;99.90;;;;;;4898806;29;20045;-67
2022/06/17 03:45:47;;;;;;;1.13;1.13;;;16.70;99.90;;;;;;4895059;29;20136;-67
2022/06/17 03:48:35;;;;;;;0.28;0.28;;;16.70;99.90;;;;;;4895647;29;20040;-67
2022/06/17 03:51:00;;;;;;;0.20;0.20;;;16.70;99.90;;;;;;4893340;29;20140;-67
2022/06/17 03:53:29;;;;;;;0.00;0.00;;;16.70;99.90;;;;;;4893600;29;20563;-67
2022/06/17 03:56:02;;;;;;;3.03;2.10;;;16.70;99.90;;;;;;4908710;29;20052;-67
2022/06/17 03:58:28;;;;;;;0.20;0.20;;;16.70;99.90;;;;;;4913689;29;20083;-67
2022/06/17 04:01:19;;;;;;;0.20;0.20;;;16.70;99.90;;;;;;4908663;29;20048;-67
2022/06/17 04:03:51;;;;;;;0.35;0.35;;;16.70;99.90;;;;;;4893311;29;20120;-67
2022/06/17 04:06:22;;;;;;;0.50;0.50;;;16.80;99.90;;;;;;4891825;29;20135;-67
2022/06/17 04:08:54;;;;;;;0.40;0.40;;;16.80;99.90;;;;;;4895375;29;20088;-67
2022/06/17 04:11:21;;;;;;;1.15;0.40;;;16.80;99.90;;;;;;4892931;29;20094;-67
2022/06/17 04:13:48;;;;;;;0.10;0.10;;;16.80;99.90;;;;;;4895134;29;20057;-67
2022/06/17 04:16:43;;;;;;;0.20;0.20;;;16.80;99.90;;;;;;4909966;29;20119;-67
2022/06/17 04:19:18;;;;;;;0.30;0.30;;;16.80;99.90;;;;;;4913672;29;20400;-67
2022/06/17 04:21:44;;;;;;;0.60;0.60;;;16.70;99.90;;;;;;4913557;29;20492;-67
2022/06/17 04:24:16;;;;;;;0.13;0.13;;;16.80;99.90;;;;;;4900678;29;20045;-67
2022/06/17 04:26:44;;;;;;;0.20;0.20;;;16.80;99.90;;;;;;4894921;29;20053;-67
2022/06/17 04:29:15;;;;;;;0.75;0.65;;;16.80;99.90;;;;;;4895744;29;20064;-67
2022/06/17 04:31:43;;;;;;;0.30;0.30;;;16.80;99.90;;;;;;4903531;29;20052;-67
2022/06/17 04:34:18;;;;;;;0.20;0.20;;;16.80;99.90;;;;;;4915567;29;20119;-67
2022/06/17 04:36:46;;;;;;;0.40;0.40;;;16.80;99.90;;;;;;4917020;29;20523;-67
2022/06/17 04:39:21;;;;;;;0.28;0.20;;;16.80;99.90;;;;;;4911571;29;20067;-67
2022/06/17 04:41:53;;;;;;;0.50;0.13;;;16.90;99.90;;;;;;4898455;29;20146;-67
2022/06/17 04:44:19;;;;;;;0.20;0.20;;;16.80;99.90;;;;;;4896925;29;20131;-67
2022/06/17 04:46:55;;;;;;;0.47;0.47;;;16.80;99.90;;;;;;4897681;29;20157;-67
2022/06/17 04:49:23;;;;;;;0.15;0.15;;;16.90;99.90;;;;;;4912693;29;20055;-67
2022/06/17 04:51:59;;;;;;;1.52;1.00;;;16.90;99.90;;;;;;4904480;29;20844;-67
2022/06/17 04:54:25;;;;;;;0.32;0.32;;;16.90;99.90;;;;;;4895898;29;20157;-67
2022/06/17 04:56:52;;;;;;;0.10;0.10;;;17.00;99.90;;;;;;4899931;29;20049;-67
2022/06/17 04:59:31;;;;;;;0.10;0.10;;;17.10;99.90;;;;;;4897274;29;20444;-67
2022/06/17 05:01:59;;;;;;;0.90;0.50;;;17.10;99.90;;;;;;4902264;29;20134;-67
2022/06/17 05:04:25;;;;;;;0.88;0.60;;;17.10;99.90;;;;;;4916474;29;20040;-67
2022/06/17 05:06:51;;;;;;;8.35;0.75;;;17.00;99.90;;;;;;4911780;29;20059;-67
2022/06/17 05:09:23;;;;;;;0.20;0.20;;;17.00;99.90;;;;;;4916142;29;20884;-67
2022/06/17 05:11:52;;;;;;;0.25;0.25;;;17.00;99.90;;;;;;4916969;29;20059;-67
2022/06/17 05:14:29;;;;;;;0.10;0.10;;;17.10;99.90;;;;;;4912772;29;20051;-67
2022/06/17 05:16:56;;;;;;;0.63;0.45;;;17.20;99.90;;;;;;4899453;29;20044;-67
2022/06/17 05:19:22;;;;;;;0.10;0.10;;;17.20;99.90;;;;;;4897409;29;20049;-68
2022/06/17 05:21:48;;;;;;;1.67;0.52;;;17.20;99.90;;;;;;4896710;29;20075;-67
2022/06/17 05:24:14;;;;;;;0.32;0.32;;;17.30;99.90;;;;;;4898269;29;20089;-67
2022/06/17 05:26:40;;;;;;;0.28;0.28;;;17.30;99.90;;;;;;4895292;29;20052;-67
2022/06/17 05:29:08;;;;;;;0.00;0.00;;;17.30;99.90;;;;;;4896586;29;20045;-67
2022/06/17 05:31:35;;;;;;;0.17;0.17;;;17.30;99.90;;;;;;4895766;29;20057;-68
2022/06/17 05:34:02;;;;;;;0.10;0.10;;;17.40;99.90;;;;;;4896200;29;20088;-67
2022/06/17 05:36:27;;;;;;;1.63;0.30;;;17.50;99.90;;;;;;4897073;29;20091;-67
2022/06/17 05:38:53;;;;;;;0.30;0.30;;;17.40;99.90;;;;;;4898970;29;20516;-67
2022/06/17 05:41:22;;;;;;;0.10;0.10;;;17.50;99.90;;;;;;4912566;29;20052;-67
2022/06/17 05:43:49;;;;;;;0.10;0.10;;;17.40;99.90;;;;;;4916110;29;20052;-67
2022/06/17 05:46:15;;;;;;;0.20;0.20;;;17.50;99.90;;;;;;4914605;29;20056;-67
2022/06/17 05:48:41;;;;;;;0.35;0.28;;;17.60;99.90;;;;;;4915107;29;20055;-67
2022/06/17 05:51:07;;;;;;;0.00;0.00;;;17.60;99.90;;;;;;4907017;29;20408;-67
2022/06/17 05:53:33;;;;;;;1.58;1.25;;;17.70;99.90;;;;;;4895344;29;20053;-67
2022/06/17 05:55:58;;;;;;;2.42;0.40;;;17.80;99.90;;;;;;4896270;29;20060;-67
2022/06/17 05:58:24;;;;;;;0.50;0.50;;;17.80;99.90;;;;;;4896958;29;20468;-67
2022/06/17 06:00:50;;;;;;;0.52;0.52;;;17.90;99.90;;;;;;4905255;29;20075;-67
2022/06/17 06:03:22;;;;;;;0.10;0.10;;;18.00;99.90;;;;;;4899195;29;20104;-67
2022/06/17 06:05:47;;;;;;;0.05;0.05;;;18.00;99.90;;;;;;4897909;29;20068;-67
2022/06/17 06:08:13;;;;;;;0.82;0.68;;;18.10;99.90;;;;;;4896412;29;20045;-67
2022/06/17 06:10:38;;;;;;;0.10;0.10;;;18.20;99.90;;;;;;4895767;29;20044;-67
2022/06/17 06:13:04;;;;;;;0.10;0.10;;;18.10;99.90;;;;;;4896532;29;20184;-67
2022/06/17 06:15:40;;;;;;;0.70;0.55;;;18.20;99.90;;;;;;4909847;29;20051;-67
2022/06/17 06:18:11;;;;;;;0.50;0.50;;;18.20;99.90;;;;;;4914174;29;20047;-67
2022/06/17 06:20:37;;;;;;;2.63;2.42;;;18.30;99.90;;;;;;4915098;29;20044;-67
2022/06/17 06:23:02;;;;;;;0.03;0.03;;;18.30;99.90;;;;;;4908565;29;20465;-67
2022/06/17 06:25:29;;;;;;;0.32;0.30;;;18.30;99.90;;;;;;4896040;29;20053;-67
2022/06/17 06:27:54;;;;;;;0.20;0.20;;;18.30;99.90;;;;;;4896253;29;20489;-67
2022/06/17 06:30:29;;;;;;;0.70;0.63;;;18.40;99.90;;;;;;4894535;29;20085;-67
2022/06/17 06:33:00;;;;;;;0.00;0.00;;;18.40;99.90;;;;;;4894794;29;20115;-67
2022/06/17 06:35:29;;;;;;;0.17;0.17;;;18.40;99.90;;;;;;4896988;29;20629;-67
2022/06/17 06:37:54;;;;;;;0.47;0.47;;;18.50;99.90;;;;;;4895604;29;20131;-67
2022/06/17 06:40:20;;;;;;;0.75;0.75;;;18.50;99.90;;;;;;4907898;29;20498;-67
2022/06/17 06:42:50;;;;;;;0.10;0.10;;;18.50;99.90;;;;;;4904041;29;20080;-67
2022/06/17 06:45:20;;;;;;;0.75;0.75;;;18.60;99.90;;;;;;4905843;29;20496;-67
2022/06/17 06:47:46;;;;;;;0.55;0.55;;;18.60;99.90;;;;;;4914062;29;20044;-67
2022/06/17 06:50:18;;;;;;;0.00;0.00;;;18.60;99.90;;;;;;4910053;29;20063;-67
2022/06/17 06:52:44;;;;;;;0.10;0.10;;;18.70;99.90;;;;;;4912353;29;20575;-67
2022/06/17 06:55:11;;;;;;;0.00;0.00;;;18.80;99.90;;;;;;4912335;29;20063;-67
2022/06/17 06:57:49;;;;;;;0.10;0.10;;;18.90;99.90;;;;;;4914406;29;20039;-67
2022/06/17 07:00:21;;;;;;;0.70;0.52;;;19.00;99.90;;;;;;4913704;29;20907;-67
2022/06/17 07:02:47;;;;;;;0.52;0.40;;;19.00;99.90;;;;;;4906569;29;20513;-67
2022/06/17 07:05:13;;;;;;;0.00;0.00;;;19.00;99.90;;;;;;4894729;29;20076;-67
2022/06/17 07:07:39;;;;;;;0.10;0.10;;;19.10;99.90;;;;;;4894542;29;20076;-67
2022/06/17 07:10:08;;;;;;;0.00;0.00;;;19.20;99.90;;;;;;4893325;29;20074;-67
2022/06/17 07:12:34;;;;;;;0.00;0.00;;;19.20;99.90;;;;;;4905422;29;20519;-67
2022/06/17 07:14:59;;;;;;;0.00;0.00;;;19.20;99.90;;;;;;4903328;29;20049;-67
2022/06/17 07:17:25;;;;;;;0.20;0.20;;;19.20;99.90;;;;;;4894377;29;20056;-67
2022/06/17 07:19:51;;;;;;;0.30;0.30;;;19.30;99.90;;;;;;4894088;29;20056;-67
2022/06/17 07:22:16;;;;;;;0.00;0.00;;;19.30;99.90;;;;;;4902402;29;20058;-67
2022/06/17 07:24:42;;;;;;;0.28;0.25;;;19.40;99.90;;;;;;4913801;29;20052;-67
2022/06/17 07:27:07;;;;;;;0.10;0.10;;;19.50;99.90;;;;;;4913241;29;20040;-67
2022/06/17 07:29:33;;;;;;;0.28;0.28;;;19.50;99.90;;;;;;4908705;29;20577;-67
2022/06/17 07:32:00;;;;;;;0.30;0.30;;;19.60;99.90;;;;;;4893725;29;20052;-67
2022/06/17 07:34:26;;;;;;;1.40;1.10;;;19.60;99.90;;;;;;4893124;29;20057;-67
2022/06/17 07:39:55;;;;;;;0.10;0.10;;;19.70;99.90;;;;;;4914110;29;20044;-67
2022/06/17 07:42:26;;;;;;;0.30;0.30;;;19.70;99.90;;;;;;4913005;29;20058;-67
2022/06/17 07:44:53;;;;;;;0.00;0.00;;;19.70;99.90;;;;;;4910619;29;20108;-67
2022/06/17 07:47:22;;;;;;;0.10;0.10;;;19.70;99.90;;;;;;4894331;29;20071;-67
2022/06/17 07:49:47;;;;;;;0.10;0.10;;;19.80;99.90;;;;;;4894077;29;20045;-67
2022/06/17 07:52:13;;;;;;;0.30;0.20;;;19.70;99.90;;;;;;4898511;29;20052;-67
2022/06/17 07:54:39;;;;;;;1.13;0.28;;;19.90;99.90;;;;;;4913199;29;20544;-67
2022/06/17 07:57:05;;;;;;;0.52;0.38;;;20.00;99.90;;;;;;4911267;29;20075;-67
2022/06/17 07:59:31;;;;;;;0.28;0.08;;;20.10;99.90;;;;;;4896750;29;20044;-67
2022/06/17 08:01:57;;;;;;;0.03;0.03;;;20.20;99.90;;;;;;4892968;29;20048;-67
2022/06/17 08:04:22;;;;;;;0.30;0.30;;;20.30;99.90;;;;;;4896625;29;20091;-67
2022/06/17 08:06:51;;;;;;;0.40;0.40;;;20.40;99.90;;;;;;4898302;29;20051;-67
2022/06/17 08:09:20;;;;;;;2.03;1.90;;;20.50;99.90;;;;;;4897931;29;20044;-67
2022/06/17 08:11:47;;;;;;;0.60;0.52;;;20.70;99.90;;;;;;4898661;29;20045;-67
2022/06/17 08:14:14;;;;;;;0.43;0.38;;;20.80;99.90;;;;;;4902572;29;20052;-67
2022/06/17 08:16:39;;;;;;;0.50;0.17;;;20.80;99.90;;;;;;4916634;29;20060;-66
2022/06/17 08:19:07;;;;;;;0.35;0.35;;;20.90;99.90;;;;;;4914630;29;20067;-67
2022/06/17 08:21:33;;;;;;;0.30;0.30;;;20.90;99.90;;;;;;4916813;29;20060;-67
2022/06/17 08:23:59;;;;;;;0.25;0.15;;;20.90;99.90;;;;;;4915424;29;20052;-67
2022/06/17 08:26:24;;;;;;;0.45;0.43;;;20.90;99.90;;;;;;4915335;29;20059;-67
2022/06/17 08:28:50;;;;;;;0.10;0.10;;;20.90;99.90;;;;;;4914470;29;20083;-67
2022/06/17 08:31:16;;;;;;;0.32;0.32;;;21.00;99.90;;;;;;4915381;29;20048;-67
2022/06/17 08:33:41;;;;;;;0.60;0.43;;;21.10;99.90;;;;;;4910382;29;20118;-68
2022/06/17 08:36:09;;;;;;;0.93;0.05;;;21.00;99.90;;;;;;4898083;29;20052;-67
2022/06/17 08:38:41;;;;;;;2.03;1.45;;;21.10;99.90;;;;;;4896354;29;20473;-67
2022/06/17 08:41:24;;;;;;;0.00;0.00;;;21.10;99.90;;;;;;4912540;29;20131;-67
2022/06/17 08:44:17;;;;;;;0.00;0.00;;;21.10;99.90;;;;;;4916336;29;20082;-67
2022/06/17 08:47:14;;;;;;;0.35;0.35;;;21.10;99.90;;;;;;4917028;29;20052;-67
2022/06/17 08:50:04;;;;;;;0.00;0.00;;;21.10;99.90;;;;;;4903737;29;20057;-67
2022/06/17 08:52:47;;;;;;;0.45;0.45;;;21.20;99.90;;;;;;4897352;29;20061;-67
2022/06/17 08:55:26;;;;;;;0.10;0.10;;;21.20;99.90;;;;;;4896521;29;20564;-67
2022/06/17 08:58:11;;;;;;;0.00;0.00;;;21.20;99.90;;;;;;4899494;29;20060;-67
2022/06/17 09:01:08;;;;;;;0.10;0.10;;;21.20;99.90;;;;;;4896434;29;20056;-67
2022/06/17 09:03:51;;;;;;;0.60;0.20;;;21.30;99.90;;;;;;4896181;29;20056;-67
2022/06/17 09:06:42;;;;;;;0.52;0.20;;;21.30;99.90;;;;;;4895960;29;20420;-66
2022/06/17 09:09:38;;;;;;;3.47;0.32;;;21.40;99.90;;;;;;4897574;29;20048;-67
2022/06/17 09:12:31;;;;;;;0.28;0.28;;;21.40;99.90;;;;;;4914398;29;20396;-68
2022/06/17 09:14:59;;;;;;;0.17;0.17;;;21.60;99.90;;;;;;4905030;29;20580;-67
2022/06/17 09:17:30;;;;;;;0.20;0.20;;;21.70;99.90;;;;;;4897446;29;20489;-67
2022/06/17 09:20:00;;;;;;;0.10;0.10;;;21.80;99.90;;;;;;4897016;29;20450;-67
2022/06/17 09:22:30;;;;;;;0.10;0.10;;;22.00;99.90;;;;;;4897268;29;20088;-67
2022/06/17 09:25:03;;;;;;;0.10;0.10;;;22.10;99.90;;;;;;4897498;29;20040;-67
2022/06/17 09:27:36;;;;;;;0.28;0.28;;;22.30;99.90;;;;;;4895895;29;20044;-68
2022/06/17 09:30:06;;;;;;;;;;;22.40;99.90;;;;;;4895967;29;20143;-69
2022/06/17 09:32:42;;;;;;;0.50;0.50;;;22.40;99.90;;;;;;4897314;29;19932;-69
2022/06/17 09:35:26;;;;;;;0.03;0.03;;;22.60;99.90;;;;;;4895678;29;20612;-69
2022/06/17 09:37:55;;;;;;;1.75;0.52;;;22.70;99.90;;;;;;4896889;29;20556;-68
2022/06/17 09:40:42;;;;;;;0.40;0.40;;;22.90;99.90;;;;;;4909945;29;20044;-68
2022/06/17 09:43:40;;;;;;;0.13;0.13;;;23.00;99.90;;;;;;4906339;29;20412;-69
2022/06/17 09:46:16;;;;;;;0.00;0.00;;;23.10;99.90;;;;;;4885344;29;20168;-69
2022/06/17 09:48:49;;;;;;;0.13;0.13;;;23.40;99.90;;;;;;4897851;29;20099;-68
2022/06/17 09:51:31;;;;;;;0.43;0.43;;;23.60;99.90;;;;;;4896746;29;20052;-69
2022/06/17 09:54:06;;;;;;;0.63;0.63;;;23.90;99.90;;;;;;4895228;29;20072;-68
2022/06/17 09:56:49;;;;;;;0.30;0.30;;;24.20;99.90;;;;;;4895751;29;20091;-69
2022/06/17 09:59:40;;;;;;;0.00;0.00;;;24.40;99.90;;;;;;4897774;29;20401;-69
2022/06/17 10:02:22;;;;;;;0.30;0.30;;;24.20;99.90;;;;;;4894823;29;20072;-68
2022/06/17 10:04:50;;;;;;;1.40;0.38;;;24.10;99.90;;;;;;4911901;29;20568;-69
2022/06/17 10:07:36;;;;;;;0.00;0.00;;;23.90;99.90;;;;;;4915588;29;20437;-69
2022/06/17 10:10:21;;;;;;;0.05;0.05;;;23.90;99.90;;;;;;4914848;29;20044;-69
2022/06/17 10:13:08;;;;;;;0.00;0.00;;;23.90;99.90;;;;;;4911487;29;20086;-69
2022/06/17 10:19:03;;;;;;;0.28;0.10;;;24.00;99.90;;;;;;4915620;29;20063;-68
2022/06/17 10:21:58;;;;;;;19.45;0.77;;;24.00;99.90;;;;;;4899808;29;20084;-69
2022/06/17 10:24:29;;;;;;;1.38;0.63;;;24.00;99.90;;;;;;4895804;29;20044;-68
2022/06/17 10:27:19;;;;;;;0.20;0.20;;;24.10;99.90;;;;;;4895622;29;20674;-70
2022/06/17 10:30:02;;;;;;;0.10;0.10;;;24.20;99.90;;;;;;4910504;29;20059;-69
2022/06/17 10:32:29;;;;;;;5.53;2.13;;;24.30;99.90;;;;;;4915053;29;20051;-69
2022/06/17 10:34:59;;;;;;;1.00;0.40;;;24.50;99.90;;;;;;4910743;29;20048;-69
2022/06/17 10:37:26;;;;;;;0.20;0.20;;;24.60;99.90;;;;;;4912230;29;20072;-69
2022/06/17 10:39:53;;;;;;;0.30;0.20;;;24.60;99.90;;;;;;4904298;29;20052;-69
2022/06/17 10:42:20;;;;;;;0.05;0.05;;;24.50;99.90;;;;;;4895874;29;20052;-69
2022/06/17 10:44:52;;;;;;;0.00;0.00;;;24.40;99.90;;;;;;4893019;29;20082;-68
2022/06/17 10:47:44;;;;;;;0.30;0.30;;;24.30;99.90;;;;;;4895980;29;20052;-68
2022/06/17 10:50:22;;;;;;;0.00;0.00;;;24.30;99.90;;;;;;4894137;29;20063;-68
2022/06/17 10:53:11;;;;;;;1.33;0.65;;;24.20;99.90;;;;;;4897257;29;20087;-68
2022/06/17 10:55:49;;;;;;;0.43;0.43;;;24.20;99.90;;;;;;4893176;29;20052;-68
2022/06/17 10:58:19;;;;;;;0.03;0.03;;;24.20;99.90;;;;;;4895103;29;20330;-68
2022/06/17 11:00:58;;;;;;;0.10;0.10;;;24.30;99.90;;;;;;4896057;29;20105;-68
2022/06/17 11:03:31;;;;;;;0.25;0.25;;;24.50;99.90;;;;;;4899338;29;20388;-69
2022/06/17 11:06:08;;;;;;;7.20;2.50;;;24.60;99.90;;;;;;4913955;29;20103;-69
2022/06/17 11:08:36;;;;;;;0.30;0.30;;;24.80;99.90;;;;;;4914686;29;20059;-69
2022/06/17 11:13:50;;;;;;;0.00;0.00;;;25.30;99.90;;;;;;4914544;29;20076;-69
2022/06/17 11:16:19;;;;;;;0.50;0.50;;;25.40;99.90;;;;;;4912769;29;20059;-69
2022/06/17 11:18:53;;;;;;;0.38;0.38;;;25.50;99.90;;;;;;4914016;29;20063;-69
2022/06/17 11:21:24;;;;;;;22.20;1.38;;;25.60;99.90;;;;;;4909054;29;20060;-69
2022/06/17 11:23:52;;;;;;;0.20;0.20;;;25.80;99.90;;;;;;4895684;29;20080;-68
2022/06/17 11:26:26;;;;;;;0.10;0.10;;;26.10;99.90;;;;;;4894566;29;20063;-68
2022/06/17 11:28:55;;;;;;;0.17;0.17;;;26.20;99.80;;;;;;4896288;29;20056;-68
2022/06/17 11:31:21;;;;;;;0.43;0.40;;;26.30;99.90;;;;;;4894599;29;20489;-68
2022/06/17 11:33:52;;;;;;;0.00;0.00;;;26.50;99.90;;;;;;4894766;29;20056;-68
2022/06/17 11:36:19;;;;;;;1.90;1.38;;;26.60;99.90;;;;;;4896034;29;20514;-69
2022/06/17 11:38:46;;;;;;;0.20;0.15;;;26.50;98.20;;;;;;4896237;29;20528;-68
2022/06/17 11:41:24;;;;;;;0.00;0.00;;;26.60;99.40;;;;;;4910922;29;20241;-69
2022/06/17 11:43:50;;;;;;;0.52;0.50;;;26.70;98.70;;;;;;4914330;29;20052;-68
2022/06/17 11:46:20;;;;;;;0.20;0.20;;;26.80;99.90;;;;;;4913735;29;20052;-68
2022/06/17 11:49:00;;;;;;;0.47;0.43;;;27.10;99.50;;;;;;4907734;29;20048;-69
2022/06/17 11:51:32;;;;;;;0.00;0.00;;;27.10;98.20;;;;;;4913746;29;20052;-69
2022/06/17 11:54:07;;;;;;;0.20;0.20;;;27.30;98.70;;;;;;4913238;29;20036;-69
2022/06/17 11:56:36;;;;;;;3.10;0.22;;;27.50;99.50;;;;;;4911622;29;20056;-70
2022/06/17 11:59:13;;;;;;;0.00;0.00;;;27.40;98.50;;;;;;4913289;29;20493;-69
2022/06/17 12:01:40;;;;;;;0.28;0.28;;;27.20;98.80;;;;;;4911829;29;20056;-69
2022/06/17 12:04:26;;;;;;;0.30;0.30;;;27.30;98.50;;;;;;4909510;29;20100;-69
2022/06/17 12:06:52;;;;;;;0.10;0.10;;;27.40;98.40;;;;;;4913781;29;20044;-68
2022/06/17 12:09:26;;;;;;;0.20;0.20;;;27.30;98.00;;;;;;4902805;29;20040;-69
2022/06/17 12:11:55;;;;;;;0.10;0.10;;;27.30;98.20;;;;;;4893962;29;20056;-70
2022/06/17 12:14:47;;;;;;;0.00;0.00;;;27.10;97.90;;;;;;4896265;29;20059;-69
2022/06/17 12:17:15;;;;;;;0.75;0.55;;;27.10;97.70;;;;;;4902273;29;20064;-69
2022/06/17 12:19:41;;;;;;;0.20;0.10;;;27.00;97.30;;;;;;4912052;29;20054;-70
2022/06/17 12:22:34;;;;;;;0.17;0.17;;;27.10;97.40;;;;;;4910018;29;20134;-69
2022/06/17 12:25:11;;;;;;;0.30;0.30;;;26.90;97.40;;;;;;4913497;29;20492;-70
2022/06/17 12:27:49;;;;;;;0.15;0.15;;;26.80;98.20;;;;;;4912336;29;20140;-69
2022/06/17 12:30:28;;;;;;;1.08;0.70;;;26.80;97.80;;;;;;4898903;29;20093;-69
2022/06/17 12:33:48;;;;;;;0.17;0.15;;;26.80;97.90;;;;;;4894636;29;20096;-69
2022/06/17 12:36:30;;;;;;;0.10;0.10;;;26.60;97.50;;;;;;4871274;29;20052;-69
2022/06/17 12:39:12;;;;;;;0.70;0.52;;;26.40;98.20;;;;;;4894800;29;20448;-69
2022/06/17 12:41:47;;;;;;;0.32;0.10;;;26.40;98.00;;;;;;4913060;29;20040;-69
2022/06/17 12:44:28;;;;;;;0.47;0.20;;;26.40;98.50;;;;;;4912655;29;20052;-69
2022/06/17 12:47:03;;;;;;;0.93;0.80;;;26.40;98.40;;;;;;4892585;29;20489;-69
2022/06/17 12:55:28;;;;;;;0.10;0.10;;;26.50;97.40;;;;;;4897182;29;20063;-69
2022/06/17 12:58:22;;;;;;;0.22;0.22;;;26.60;97.10;;;;;;4896817;29;20723;-69
2022/06/17 13:00:55;;;;;;;0.00;0.00;;;26.60;97.10;;;;;;4916768;29;20103;-68
2022/06/17 13:03:33;;;;;;;0.10;0.10;;;26.60;98.20;;;;;;4916290;29;20212;-69
2022/06/17 13:06:29;;;;;;;0.00;0.00;;;26.60;98.60;;;;;;4916105;29;20052;-68
2022/06/17 13:09:20;;;;;;;0.00;0.00;;;26.70;98.30;;;;;;4900401;29;20060;-68
2022/06/17 13:12:08;;;;;;;0.17;0.17;;;26.70;97.80;;;;;;4897593;29;20059;-68
2022/06/17 13:14:57;;;;;;;4.03;1.08;;;26.70;97.10;;;;;;4908837;29;20059;-69
2022/06/17 13:17:41;;;;;;;0.40;0.32;;;26.70;97.60;;;;;;4898331;29;20131;-69
2022/06/17 13:20:24;;;;;;;0.00;0.00;;;26.80;97.80;;;;;;4896060;29;20556;-69
2022/06/17 13:23:11;;;;;;;0.00;0.00;;;26.80;98.10;;;;;;4897758;29;20045;-69
2022/06/17 13:26:02;;;;;;;0.10;0.10;;;27.30;98.40;;;;;;4897839;29;20053;-69
2022/06/17 13:28:48;;;;;;;0.00;0.00;;;27.70;97.70;;;;;;4898084;29;20048;-69
2022/06/17 13:31:39;;;;;;;0.17;0.10;;;28.20;98.10;;;;;;4915887;29;20040;-69
2022/06/17 13:34:19;;;;;;;0.00;0.00;;;28.10;97.10;;;;;;4909827;29;20064;-70
2022/06/17 13:36:51;;;;;;;0.10;0.10;;;27.70;96.90;;;;;;4897181;29;20052;-69